Time,TemperatureF,DewpointF,PressureIn,WindDirection,WindDirectionDegrees,WindSpeedMPH,WindSpeedGustMPH,Humidity,HourlyPrecipIn,Conditions,Clouds,dailyrainin,SoftwareType,DateUTC
2013-12-12 00:01:00,37.3,27.4,30.26,NNE,30,0.0,0.0,67,0.00,,,0.00,WeatherCatV1.23B14,2013-12-12 08:01:00,
2013-12-12 00:06:00,36.7,28.2,30.25,NNE,30,0.0,0.0,71,0.00,,,0.00,WeatherCatV1.23B14,2013-12-12 08:06:00,
2013-12-12 00:11:00,35.8,26.6,30.26,NNE,30,0.0,0.0,69,0.00,,,0.00,WeatherCatV1.23B14,2013-12-12 08:11:00,
2013-12-12 00:16:00,35.2,26.8,30.26,NNE,30,0.0,0.0,71,0.00,,,0.00,WeatherCatV1.23B14,2013-12-12 08:16:00,
2013-12-12 00:21:00,34.8,26.4,30.25,NNE,30,0.0,0.0,71,0.00,,,0.00,WeatherCatV1.23B14,2013-12-12 08:21:00,
2013-12-12 00:26:00,34.7,26.3,30.25,NNE,30,0.0,0.0,71,0.00,,,0.00,WeatherCatV1.23B14,2013-12-12 08:26:00,
2013-12-12 00:31:00,35.0,27.2,30.26,NNE,30,0.0,0.0,73,0.00,,,0.00,WeatherCatV1.23B14,2013-12-12 08:31:00,
2013-12-12 00:36:00,35.2,26.8,30.25,NNE,30,0.0,0.0,71,0.00,,,0.00,WeatherCatV1.23B14,2013-12-12 08:36:00,
2013-12-12 00:41:00,35.9,26.0,30.25,NNE,30,0.0,0.0,67,0.00,,,0.00,WeatherCatV1.23B14,2013-12-12 08:41:00,
2013-12-12 00:47:00,36.4,26.9,30.25,NNE,30,0.0,0.0,68,0.00,,,0.00,WeatherCatV1.23B14,2013-12-12 08:47:00,
2013-12-12 00:52:00,36.3,27.8,30.25,NNE,30,0.0,0.0,71,0.00,,,0.00,WeatherCatV1.23B14,2013-12-12 08:52:00,
2013-12-12 00:57:00,36.0,26.8,30.25,NNE,30,0.0,0.0,69,0.00,,,0.00,WeatherCatV1.23B14,2013-12-12 08:57:00,
2013-12-12 01:02:00,36.1,26.6,30.25,NNE,30,0.0,0.0,68,0.00,,,0.00,WeatherCatV1.23B14,2013-12-12 09:02:00,
2013-12-12 01:07:00,36.5,25.9,30.25,NNE,30,0.0,0.0,65,0.00,,,0.00,WeatherCatV1.23B14,2013-12-12 09:07:00,
2013-12-12 01:12:00,37.1,26.1,30.26,NNE,30,0.0,0.0,64,0.00,,,0.00,WeatherCatV1.23B14,2013-12-12 09:12:00,
2013-12-12 01:17:00,37.3,26.3,30.26,NNE,30,0.0,0.0,64,0.00,,,0.00,WeatherCatV1.23B14,2013-12-12 09:17:00,
2013-12-12 01:22:00,37.3,25.9,30.25,NNE,30,0.0,0.0,63,0.00,,,0.00,WeatherCatV1.23B14,2013-12-12 09:22:00,
2013-12-12 01:27:00,37.5,25.7,30.25,NNE,30,0.0,0.0,62,0.00,,,0.00,WeatherCatV1.23B14,2013-12-12 09:27:00,
2013-12-12 01:32:00,37.5,27.5,30.25,NNE,30,0.0,0.0,67,0.00,,,0.00,WeatherCatV1.23B14,2013-12-12 09:32:00,
2013-12-12 01:37:00,37.0,27.4,30.25,NNE,30,0.0,0.0,68,0.00,,,0.00,WeatherCatV1.23B14,2013-12-12 09:37:00,
2013-12-12 01:42:00,36.7,26.8,30.25,NNE,30,0.0,0.0,67,0.00,,,0.00,WeatherCatV1.23B14,2013-12-12 09:42:00,
2013-12-12 01:47:00,36.6,26.7,30.25,NNE,30,0.0,0.0,67,0.00,,,0.00,WeatherCatV1.23B14,2013-12-12 09:47:00,
2013-12-12 01:52:00,36.9,26.2,30.25,NNE,30,0.0,0.0,65,0.00,,,0.00,WeatherCatV1.23B14,2013-12-12 09:52:00,
2013-12-12 01:57:00,36.9,26.6,30.25,NNE,30,0.0,0.0,66,0.00,,,0.00,WeatherCatV1.23B14,2013-12-12 09:57:00,
2013-12-12 02:02:00,36.8,27.6,30.25,NNE,30,0.0,0.0,69,0.00,,,0.00,WeatherCatV1.23B14,2013-12-12 10:02:00,
2013-12-12 02:07:00,36.4,27.2,30.25,NNE,30,0.0,0.0,69,0.00,,,0.00,WeatherCatV1.23B14,2013-12-12 10:07:00,
2013-12-12 02:12:00,36.3,27.1,30.25,NNE,30,0.0,0.0,69,0.00,,,0.00,WeatherCatV1.23B14,2013-12-12 10:12:00,
2013-12-12 02:17:00,36.3,26.8,30.26,NNE,30,0.0,0.0,68,0.00,,,0.00,WeatherCatV1.23B14,2013-12-12 10:17:00,
2013-12-12 02:22:00,36.3,26.8,30.26,NNE,30,0.0,0.0,68,0.00,,,0.00,WeatherCatV1.23B14,2013-12-12 10:22:00,
2013-12-12 02:27:00,36.5,26.2,30.25,NNE,30,0.0,0.0,66,0.00,,,0.00,WeatherCatV1.23B14,2013-12-12 10:27:00,
2013-12-12 02:32:00,36.5,26.6,30.26,NNE,30,0.0,0.0,67,0.00,,,0.00,WeatherCatV1.23B14,2013-12-12 10:32:00,
2013-12-12 02:37:00,36.5,25.9,30.26,ENE,61,0.0,0.0,65,0.00,,,0.00,WeatherCatV1.23B14,2013-12-12 10:37:00,
2013-12-12 02:42:00,36.7,25.7,30.26,ENE,72,0.0,0.0,64,0.00,,,0.00,WeatherCatV1.23B14,2013-12-12 10:42:00,
2013-12-12 02:47:00,36.8,26.1,30.25,ENE,72,0.0,0.0,65,0.00,,,0.00,WeatherCatV1.23B14,2013-12-12 10:47:00,
2013-12-12 02:52:00,36.8,26.1,30.25,ENE,72,0.0,0.0,65,0.00,,,0.00,WeatherCatV1.23B14,2013-12-12 10:52:00,
2013-12-12 02:57:00,36.2,27.0,30.25,NNE,25,0.0,0.0,69,0.00,,,0.00,WeatherCatV1.23B14,2013-12-12 10:57:00,
2013-12-12 03:02:00,35.3,26.9,30.25,NNE,25,0.0,0.0,71,0.00,,,0.00,WeatherCatV1.23B14,2013-12-12 11:02:00,
2013-12-12 03:07:00,35.0,26.2,30.25,NNE,25,0.0,0.0,70,0.00,,,0.00,WeatherCatV1.23B14,2013-12-12 11:07:00,
2013-12-12 03:12:00,35.5,25.6,30.25,NNE,25,0.0,0.0,67,0.00,,,0.00,WeatherCatV1.23B14,2013-12-12 11:12:00,
2013-12-12 03:17:00,35.9,25.7,30.25,NNE,25,0.0,0.0,66,0.00,,,0.00,WeatherCatV1.23B14,2013-12-12 11:17:00,
2013-12-12 03:22:00,35.9,26.4,30.25,NNE,25,0.0,0.0,68,0.00,,,0.00,WeatherCatV1.23B14,2013-12-12 11:22:00,
2013-12-12 03:27:00,35.7,26.5,30.25,NNE,25,0.0,0.0,69,0.00,,,0.00,WeatherCatV1.23B14,2013-12-12 11:27:00,
2013-12-12 03:32:00,35.6,25.7,30.25,NNE,25,0.0,0.0,67,0.00,,,0.00,WeatherCatV1.23B14,2013-12-12 11:32:00,
2013-12-12 03:37:00,35.9,25.3,30.25,NNE,25,0.0,0.0,65,0.00,,,0.00,WeatherCatV1.23B14,2013-12-12 11:37:00,
2013-12-12 03:42:00,36.1,25.1,30.25,NNE,27,0.0,0.0,64,0.00,,,0.00,WeatherCatV1.23B14,2013-12-12 11:42:00,
2013-12-12 03:47:00,36.3,24.9,30.25,NNE,27,0.0,0.0,63,0.00,,,0.00,WeatherCatV1.23B14,2013-12-12 11:47:00,
2013-12-12 03:52:00,36.3,24.9,30.25,NNE,27,0.0,0.0,63,0.00,,,0.00,WeatherCatV1.23B14,2013-12-12 11:52:00,
2013-12-12 03:57:00,36.1,25.1,30.25,NNE,27,0.0,0.0,64,0.00,,,0.00,WeatherCatV1.23B14,2013-12-12 11:57:00,
2013-12-12 04:02:00,36.3,24.5,30.24,NNE,27,0.0,0.0,62,0.00,,,0.00,WeatherCatV1.23B14,2013-12-12 12:02:00,
2013-12-12 04:07:00,36.6,24.8,30.24,NNE,27,0.0,0.0,62,0.00,,,0.00,WeatherCatV1.23B14,2013-12-12 12:07:00,
2013-12-12 04:12:00,36.4,26.1,30.24,NNE,27,0.0,0.0,66,0.00,,,0.00,WeatherCatV1.23B14,2013-12-12 12:12:00,
2013-12-12 04:17:00,35.5,26.0,30.24,NNE,27,0.0,0.0,68,0.00,,,0.00,WeatherCatV1.23B14,2013-12-12 12:17:00,
2013-12-12 04:22:00,35.2,24.6,30.24,NNE,27,0.0,0.0,65,0.00,,,0.00,WeatherCatV1.23B14,2013-12-12 12:22:00,
2013-12-12 04:27:00,35.5,24.5,30.24,NNE,27,0.0,0.0,64,0.00,,,0.00,WeatherCatV1.23B14,2013-12-12 12:27:00,
2013-12-12 04:32:00,35.9,23.8,30.24,NNE,27,0.0,0.0,61,0.00,,,0.00,WeatherCatV1.23B14,2013-12-12 12:32:00,
2013-12-12 04:37:00,36.3,23.4,30.24,NNE,27,0.0,0.0,59,0.00,,,0.00,WeatherCatV1.23B14,2013-12-12 12:37:00,
2013-12-12 04:42:00,36.7,22.5,30.24,NNE,30,0.0,0.0,56,0.00,,,0.00,WeatherCatV1.23B14,2013-12-12 12:42:00,
2013-12-12 04:47:00,37.4,22.7,30.24,ENE,65,0.0,0.0,55,0.00,,,0.00,WeatherCatV1.23B14,2013-12-12 12:47:00,
2013-12-12 04:52:00,37.7,23.4,30.24,ENE,65,0.0,0.0,56,0.00,,,0.00,WeatherCatV1.23B14,2013-12-12 12:52:00,
2013-12-12 04:57:00,37.5,24.5,30.24,ENE,65,0.0,0.0,59,0.00,,,0.00,WeatherCatV1.23B14,2013-12-12 12:57:00,
2013-12-12 05:02:00,37.1,24.9,30.24,NNE,27,0.0,0.0,61,0.00,,,0.00,WeatherCatV1.23B14,2013-12-12 13:02:00,
2013-12-12 05:07:00,36.5,25.1,30.24,NNE,27,0.0,0.0,63,0.00,,,0.00,WeatherCatV1.23B14,2013-12-12 13:07:00,
2013-12-12 05:12:00,35.7,25.1,30.24,NNE,27,0.0,0.0,65,0.00,,,0.00,WeatherCatV1.23B14,2013-12-12 13:12:00,
2013-12-12 05:17:00,36.0,23.5,30.24,NNE,27,0.0,0.0,60,0.00,,,0.00,WeatherCatV1.23B14,2013-12-12 13:17:00,
2013-12-12 05:22:00,36.4,22.6,30.24,NNE,27,0.0,0.0,57,0.00,,,0.00,WeatherCatV1.23B14,2013-12-12 13:22:00,
2013-12-12 05:27:00,36.7,22.9,30.24,NNE,27,0.0,0.0,57,0.00,,,0.00,WeatherCatV1.23B14,2013-12-12 13:27:00,
2013-12-12 05:32:00,36.9,23.1,30.24,NNE,28,0.0,0.0,57,0.00,,,0.00,WeatherCatV1.23B14,2013-12-12 13:32:00,
2013-12-12 05:37:00,36.9,23.1,30.24,NNE,27,0.0,0.0,57,0.00,,,0.00,WeatherCatV1.23B14,2013-12-12 13:37:00,
2013-12-12 05:42:00,36.7,23.3,30.24,NNE,27,0.0,0.0,58,0.00,,,0.00,WeatherCatV1.23B14,2013-12-12 13:42:00,
2013-12-12 05:47:00,36.3,23.4,30.24,NNE,27,0.0,0.0,59,0.00,,,0.00,WeatherCatV1.23B14,2013-12-12 13:47:00,
2013-12-12 05:52:00,35.8,24.5,30.24,NNE,27,0.0,0.0,63,0.00,,,0.00,WeatherCatV1.23B14,2013-12-12 13:52:00,
2013-12-12 05:57:00,35.5,23.4,30.24,NNE,27,0.0,0.0,61,0.00,,,0.00,WeatherCatV1.23B14,2013-12-12 13:57:00,
2013-12-12 06:02:00,35.7,22.8,30.24,NNE,27,0.0,0.0,59,0.00,,,0.00,WeatherCatV1.23B14,2013-12-12 14:02:00,
2013-12-12 06:07:00,36.0,22.7,30.24,NNE,28,0.0,0.0,58,0.00,,,0.00,WeatherCatV1.23B14,2013-12-12 14:07:00,
2013-12-12 06:12:00,36.4,22.2,30.24,NNE,28,0.0,0.0,56,0.00,,,0.00,WeatherCatV1.23B14,2013-12-12 14:12:00,
2013-12-12 06:17:00,36.5,22.3,30.24,NNE,28,0.0,0.0,56,0.00,,,0.00,WeatherCatV1.23B14,2013-12-12 14:17:00,
2013-12-12 06:22:00,36.5,22.7,30.24,NNE,28,0.0,0.0,57,0.00,,,0.00,WeatherCatV1.23B14,2013-12-12 14:22:00,
2013-12-12 06:27:00,36.3,23.4,30.24,NNE,29,0.0,0.0,59,0.00,,,0.00,WeatherCatV1.23B14,2013-12-12 14:27:00,
2013-12-12 06:32:00,36.3,22.1,30.24,NNE,28,0.0,0.0,56,0.00,,,0.00,WeatherCatV1.23B14,2013-12-12 14:32:00,
2013-12-12 06:37:00,36.1,24.0,30.24,NNE,28,0.0,0.0,61,0.00,,,0.00,WeatherCatV1.23B14,2013-12-12 14:37:00,
2013-12-12 06:42:00,35.6,24.6,30.24,NNE,29,0.0,0.0,64,0.00,,,0.00,WeatherCatV1.23B14,2013-12-12 14:42:00,
2013-12-12 06:47:00,35.1,24.2,30.24,NNE,28,0.0,0.0,64,0.00,,,0.00,WeatherCatV1.23B14,2013-12-12 14:47:00,
2013-12-12 06:52:00,35.1,23.4,30.24,NNE,28,0.0,0.0,62,0.00,,,0.00,WeatherCatV1.23B14,2013-12-12 14:52:00,
2013-12-12 06:57:00,35.7,22.4,30.24,NNE,28,0.0,0.0,58,0.00,,,0.00,WeatherCatV1.23B14,2013-12-12 14:57:00,
2013-12-12 07:02:00,36.1,22.4,30.24,NNE,28,0.0,0.0,57,0.00,,,0.00,WeatherCatV1.23B14,2013-12-12 15:02:00,
2013-12-12 07:07:00,36.1,23.2,30.24,NNE,29,0.0,0.0,59,0.00,,,0.00,WeatherCatV1.23B14,2013-12-12 15:07:00,
2013-12-12 07:12:00,35.9,22.6,30.25,NNE,28,0.0,0.0,58,0.00,,,0.00,WeatherCatV1.23B14,2013-12-12 15:12:00,
2013-12-12 07:17:00,35.9,22.2,30.25,NNE,29,0.0,0.0,57,0.00,,,0.00,WeatherCatV1.23B14,2013-12-12 15:17:00,
2013-12-12 07:22:00,36.2,21.2,30.25,NNE,29,0.0,0.0,54,0.00,,,0.00,WeatherCatV1.23B14,2013-12-12 15:22:00,
2013-12-12 07:27:00,36.4,21.4,30.25,NNE,29,0.0,0.0,54,0.00,,,0.00,WeatherCatV1.23B14,2013-12-12 15:27:00,
2013-12-12 07:32:00,36.4,21.8,30.25,NNE,28,0.0,0.0,55,0.00,,,0.00,WeatherCatV1.23B14,2013-12-12 15:32:00,
2013-12-12 07:37:00,36.4,21.8,30.25,NNE,28,0.0,0.0,55,0.00,,,0.00,WeatherCatV1.23B14,2013-12-12 15:37:00,
2013-12-12 07:42:00,36.5,21.9,30.25,NNE,29,0.0,0.0,55,0.00,,,0.00,WeatherCatV1.23B14,2013-12-12 15:42:00,
2013-12-12 07:47:00,36.1,24.0,30.25,NNE,29,0.0,0.0,61,0.00,,,0.00,WeatherCatV1.23B14,2013-12-12 15:47:00,
2013-12-12 07:52:00,35.8,22.9,30.25,NNE,29,0.0,0.0,59,0.00,,,0.00,WeatherCatV1.23B14,2013-12-12 15:52:00,
2013-12-12 07:57:00,35.7,22.4,30.25,NNE,29,0.0,0.0,58,0.00,,,0.00,WeatherCatV1.23B14,2013-12-12 15:57:00,
2013-12-12 08:02:00,36.0,22.3,30.25,NNE,29,0.0,0.0,57,0.00,,,0.00,WeatherCatV1.23B14,2013-12-12 16:02:00,
2013-12-12 08:07:00,36.5,21.9,30.25,NNE,28,0.0,0.0,55,0.00,,,0.00,WeatherCatV1.23B14,2013-12-12 16:07:00,
2013-12-12 08:12:00,36.8,22.2,30.25,NNE,28,0.0,0.0,55,0.00,,,0.00,WeatherCatV1.23B14,2013-12-12 16:12:00,
2013-12-12 08:17:00,37.2,21.2,30.26,NNE,29,0.0,0.0,52,0.00,,,0.00,WeatherCatV1.23B14,2013-12-12 16:17:00,
2013-12-12 08:22:00,38.0,21.0,30.26,NNE,29,0.0,0.0,50,0.00,,,0.00,WeatherCatV1.23B14,2013-12-12 16:22:00,
2013-12-12 08:27:00,38.8,21.3,30.26,NNE,28,0.0,0.0,49,0.00,,,0.00,WeatherCatV1.23B14,2013-12-12 16:27:00,
2013-12-12 08:32:00,39.3,20.8,30.26,NNE,28,0.0,0.0,47,0.00,,,0.00,WeatherCatV1.23B14,2013-12-12 16:32:00,
2013-12-12 08:37:00,39.7,22.1,30.26,NNE,29,0.0,0.0,49,0.00,,,0.00,WeatherCatV1.23B14,2013-12-12 16:37:00,
2013-12-12 08:42:00,39.7,22.1,30.26,NNE,28,0.0,0.0,49,0.00,,,0.00,WeatherCatV1.23B14,2013-12-12 16:42:00,
2013-12-12 08:47:00,39.9,22.3,30.27,NNE,29,0.0,0.0,49,0.00,,,0.00,WeatherCatV1.23B14,2013-12-12 16:47:00,
2013-12-12 08:52:00,40.6,21.5,30.27,NNE,29,0.0,0.0,46,0.00,,,0.00,WeatherCatV1.23B14,2013-12-12 16:52:00,
2013-12-12 08:57:00,41.3,21.6,30.27,NNE,29,0.0,0.0,45,0.00,,,0.00,WeatherCatV1.23B14,2013-12-12 16:57:00,
2013-12-12 09:02:00,41.9,21.0,30.27,NNE,29,0.0,0.0,43,0.00,,,0.00,WeatherCatV1.23B14,2013-12-12 17:02:00,
2013-12-12 09:07:00,42.7,21.8,30.27,NNE,29,0.0,0.0,43,0.00,,,0.00,WeatherCatV1.23B14,2013-12-12 17:07:00,
2013-12-12 09:12:00,43.4,23.0,30.27,NNE,28,0.0,0.0,44,0.00,,,0.00,WeatherCatV1.23B14,2013-12-12 17:12:00,
2013-12-12 09:17:00,43.6,23.1,30.27,NNE,29,0.0,0.0,44,0.00,,,0.00,WeatherCatV1.23B14,2013-12-12 17:17:00,
2013-12-12 09:22:00,44.0,24.6,30.27,NNE,28,0.0,0.0,46,0.00,,,0.00,WeatherCatV1.23B14,2013-12-12 17:22:00,
2013-12-12 09:27:00,44.5,24.5,30.28,NNE,28,0.0,0.0,45,0.00,,,0.00,WeatherCatV1.23B14,2013-12-12 17:27:00,
2013-12-12 09:32:00,44.8,24.2,30.28,NNE,29,0.0,0.0,44,0.00,,,0.00,WeatherCatV1.23B14,2013-12-12 17:32:00,
2013-12-12 09:37:00,45.1,24.0,30.28,NNE,29,0.0,0.0,43,0.00,,,0.00,WeatherCatV1.23B14,2013-12-12 17:37:00,
2013-12-12 09:42:00,45.6,24.4,30.28,NNE,29,0.0,0.0,43,0.00,,,0.00,WeatherCatV1.23B14,2013-12-12 17:42:00,
2013-12-12 09:47:00,46.2,25.5,30.28,NNE,28,0.0,0.0,44,0.00,,,0.00,WeatherCatV1.23B14,2013-12-12 17:47:00,
2013-12-12 09:52:00,46.9,26.1,30.28,NNE,28,0.0,0.0,44,0.00,,,0.00,WeatherCatV1.23B14,2013-12-12 17:52:00,
2013-12-12 09:57:00,47.4,25.5,30.27,NNE,28,0.0,0.0,42,0.00,,,0.00,WeatherCatV1.23B14,2013-12-12 17:57:00,
2013-12-12 10:02:00,47.9,26.5,30.27,NNE,28,0.0,0.0,43,0.00,,,0.00,WeatherCatV1.23B14,2013-12-12 18:02:00,
2013-12-12 10:07:00,48.3,26.3,30.27,NNE,28,0.0,0.0,42,0.00,,,0.00,WeatherCatV1.23B14,2013-12-12 18:07:00,
2013-12-12 10:12:00,48.8,26.7,30.27,NNE,29,0.0,0.0,42,0.00,,,0.00,WeatherCatV1.23B14,2013-12-12 18:12:00,
2013-12-12 10:17:00,49.2,26.5,30.27,NNE,29,0.0,0.0,41,0.00,,,0.00,WeatherCatV1.23B14,2013-12-12 18:17:00,
2013-12-12 10:22:00,49.7,26.4,30.27,NNE,30,0.0,0.0,40,0.00,,,0.00,WeatherCatV1.23B14,2013-12-12 18:22:00,
2013-12-12 10:27:00,50.4,28.2,30.27,NE,54,0.0,0.0,42,0.00,,,0.00,WeatherCatV1.23B14,2013-12-12 18:27:00,
2013-12-12 10:32:00,51.6,24.9,30.26,ENE,59,0.0,0.0,35,0.00,,,0.00,WeatherCatV1.23B14,2013-12-12 18:32:00,
2013-12-12 10:37:00,52.4,22.7,30.26,East,98,0.0,0.0,31,0.00,,,0.00,WeatherCatV1.23B14,2013-12-12 18:37:00,
2013-12-12 10:42:00,52.9,22.3,30.26,ESE,119,0.0,0.0,30,0.00,,,0.00,WeatherCatV1.23B14,2013-12-12 18:42:00,
2013-12-12 10:47:00,53.5,22.8,30.26,ESE,119,0.0,0.0,30,0.00,,,0.00,WeatherCatV1.23B14,2013-12-12 18:47:00,
2013-12-12 10:52:00,54.2,24.2,30.25,WSW,238,0.0,0.0,31,0.00,,,0.00,WeatherCatV1.23B14,2013-12-12 18:52:00,
2013-12-12 10:57:00,54.7,22.2,30.25,SSE,155,0.0,0.0,28,0.00,,,0.00,WeatherCatV1.23B14,2013-12-12 18:57:00,
2013-12-12 11:02:00,55.3,23.6,30.25,WSW,242,0.0,2.0,29,0.00,,,0.00,WeatherCatV1.23B14,2013-12-12 19:02:00,
2013-12-12 11:07:00,55.8,24.0,30.25,WSW,239,0.0,0.0,29,0.00,,,0.00,WeatherCatV1.23B14,2013-12-12 19:07:00,
2013-12-12 11:12:00,56.2,19.9,30.25,SW,233,1.0,3.0,24,0.00,,,0.00,WeatherCatV1.23B14,2013-12-12 19:12:00,
2013-12-12 11:17:00,56.7,21.3,30.24,ESE,115,0.0,1.0,25,0.00,,,0.00,WeatherCatV1.23B14,2013-12-12 19:17:00,
2013-12-12 11:22:00,57.5,22.9,30.24,ESE,114,0.0,0.0,26,0.00,,,0.00,WeatherCatV1.23B14,2013-12-12 19:22:00,
2013-12-12 11:27:00,58.2,22.6,30.24,ESE,114,0.0,0.0,25,0.00,,,0.00,WeatherCatV1.23B14,2013-12-12 19:27:00,
2013-12-12 11:32:00,58.6,21.9,30.24,ESE,114,0.0,0.0,24,0.00,,,0.00,WeatherCatV1.23B14,2013-12-12 19:32:00,
2013-12-12 11:37:00,59.0,22.3,30.23,ESE,114,0.0,1.0,24,0.00,,,0.00,WeatherCatV1.23B14,2013-12-12 19:37:00,
2013-12-12 11:42:00,59.6,22.8,30.23,ESE,115,0.0,0.0,24,0.00,,,0.00,WeatherCatV1.23B14,2013-12-12 19:42:00,
2013-12-12 11:47:00,60.1,21.1,30.23,ESE,113,1.0,1.0,22,0.00,,,0.00,WeatherCatV1.23B14,2013-12-12 19:47:00,
2013-12-12 11:52:00,59.9,22.0,30.23,East,94,0.0,0.0,23,0.00,,,0.00,WeatherCatV1.23B14,2013-12-12 19:52:00,
2013-12-12 11:57:00,60.0,22.1,30.22,East,94,0.0,0.0,23,0.00,,,0.00,WeatherCatV1.23B14,2013-12-12 19:57:00,
2013-12-12 12:02:00,60.2,25.2,30.22,WSW,256,1.0,1.0,26,0.00,,,0.00,WeatherCatV1.23B14,2013-12-12 20:02:00,
2013-12-12 12:07:00,59.7,20.8,30.22,West,266,0.0,0.0,22,0.00,,,0.00,WeatherCatV1.23B14,2013-12-12 20:07:00,
2013-12-12 12:12:00,58.9,22.2,30.22,West,280,0.0,0.0,24,0.00,,,0.00,WeatherCatV1.23B14,2013-12-12 20:12:00,
2013-12-12 12:17:00,58.9,21.2,30.21,West,278,0.0,0.0,23,0.00,,,0.00,WeatherCatV1.23B14,2013-12-12 20:17:00,
2013-12-12 12:22:00,59.1,23.3,30.21,West,278,0.0,0.0,25,0.00,,,0.00,WeatherCatV1.23B14,2013-12-12 20:22:00,
2013-12-12 12:27:00,59.0,23.2,30.21,WSW,256,0.0,3.0,25,0.00,,,0.00,WeatherCatV1.23B14,2013-12-12 20:27:00,
2013-12-12 12:32:00,58.8,24.0,30.20,WSW,257,0.0,1.0,26,0.00,,,0.00,WeatherCatV1.23B14,2013-12-12 20:32:00,
2013-12-12 12:37:00,58.6,20.9,30.20,West,260,0.0,4.0,23,0.00,,,0.00,WeatherCatV1.23B14,2013-12-12 20:37:00,
2013-12-12 12:42:00,58.8,23.1,30.20,West,267,3.0,4.0,25,0.00,,,0.00,WeatherCatV1.23B14,2013-12-12 20:42:00,
2013-12-12 12:47:00,58.7,21.0,30.20,West,267,0.0,1.0,23,0.00,,,0.00,WeatherCatV1.23B14,2013-12-12 20:47:00,
2013-12-12 12:52:00,58.8,24.9,30.20,WSW,257,0.0,1.0,27,0.00,,,0.00,WeatherCatV1.23B14,2013-12-12 20:52:00,
2013-12-12 12:57:00,58.9,22.2,30.20,WSW,248,3.0,3.0,24,0.00,,,0.00,WeatherCatV1.23B14,2013-12-12 20:57:00,
2013-12-12 13:02:00,58.9,17.9,30.20,WSW,250,0.0,2.0,20,0.00,,,0.00,WeatherCatV1.23B14,2013-12-12 21:02:00,
2013-12-12 13:07:00,59.1,21.4,30.19,WSW,249,0.0,1.0,23,0.00,,,0.00,WeatherCatV1.23B14,2013-12-12 21:07:00,
2013-12-12 13:12:00,59.2,22.4,30.19,West,267,1.0,1.0,24,0.00,,,0.00,WeatherCatV1.23B14,2013-12-12 21:12:00,
2013-12-12 13:17:00,59.5,24.6,30.19,West,262,0.0,3.0,26,0.00,,,0.00,WeatherCatV1.23B14,2013-12-12 21:17:00,
2013-12-12 13:22:00,59.6,25.6,30.18,ESE,111,0.0,2.0,27,0.00,,,0.00,WeatherCatV1.23B14,2013-12-12 21:22:00,
2013-12-12 13:25:00,59.7,25.7,30.19,WSW,252,2.0,2.0,27,0.00,,,0.00,WeatherCatV1.23B14,2013-12-12 21:25:00,
2013-12-12 13:30:00,60.2,27.0,30.18,SSE,158,2.0,2.0,28,0.00,,,0.00,WeatherCatV1.23B14,2013-12-12 21:30:00,
2013-12-12 13:35:00,60.5,26.4,30.18,SE,139,0.0,1.0,27,0.00,,,0.00,WeatherCatV1.23B14,2013-12-12 21:35:00,
2013-12-12 13:40:00,60.3,27.1,30.18,WSW,255,0.0,2.0,28,0.00,,,0.00,WeatherCatV1.23B14,2013-12-12 21:40:00,
2013-12-12 13:45:00,59.9,26.7,30.18,SW,236,1.0,2.0,28,0.00,,,0.00,WeatherCatV1.23B14,2013-12-12 21:45:00,
2013-12-12 13:50:00,59.7,27.4,30.18,SW,221,1.0,1.0,29,0.00,,,0.00,WeatherCatV1.23B14,2013-12-12 21:50:00,
2013-12-12 13:55:00,59.3,25.3,30.18,WSW,257,0.0,3.0,27,0.00,,,0.00,WeatherCatV1.23B14,2013-12-12 21:55:00,
2013-12-12 14:00:00,59.4,27.1,30.17,SSW,206,0.0,1.0,29,0.00,,,0.00,WeatherCatV1.23B14,2013-12-12 22:00:00,
2013-12-12 14:05:00,59.4,28.8,30.17,West,265,1.0,2.0,31,0.00,,,0.00,WeatherCatV1.23B14,2013-12-12 22:05:00,
2013-12-12 14:10:00,58.5,28.8,30.17,West,270,0.0,2.0,32,0.00,,,0.00,WeatherCatV1.23B14,2013-12-12 22:10:00,
2013-12-12 14:15:00,58.1,27.6,30.17,West,271,0.0,0.0,31,0.00,,,0.00,WeatherCatV1.23B14,2013-12-12 22:15:00,
2013-12-12 14:20:00,58.2,29.2,30.17,SSE,156,0.0,1.0,33,0.00,,,0.00,WeatherCatV1.23B14,2013-12-12 22:20:00,
2013-12-12 14:25:00,58.3,28.6,30.17,West,266,0.0,0.0,32,0.00,,,0.00,WeatherCatV1.23B14,2013-12-12 22:25:00,
2013-12-12 14:30:00,58.2,28.5,30.17,West,267,0.0,2.0,32,0.00,,,0.00,WeatherCatV1.23B14,2013-12-12 22:30:00,
2013-12-12 14:35:00,57.6,28.7,30.17,West,270,0.0,1.0,33,0.00,,,0.00,WeatherCatV1.23B14,2013-12-12 22:35:00,
2013-12-12 14:40:00,57.5,27.1,30.17,WSW,246,0.0,2.0,31,0.00,,,0.00,WeatherCatV1.23B14,2013-12-12 22:40:00,
2013-12-12 14:45:00,57.4,26.2,30.17,SE,137,0.0,1.0,30,0.00,,,0.00,WeatherCatV1.23B14,2013-12-12 22:45:00,
2013-12-12 14:50:00,57.3,25.3,30.17,SSE,150,1.0,2.0,29,0.00,,,0.00,WeatherCatV1.23B14,2013-12-12 22:50:00,
2013-12-12 14:55:00,57.2,26.0,30.17,SSE,155,0.0,2.0,30,0.00,,,0.00,WeatherCatV1.23B14,2013-12-12 22:55:00,
2013-12-12 15:00:00,57.0,25.1,30.17,SE,145,0.0,1.0,29,0.00,,,0.00,WeatherCatV1.23B14,2013-12-12 23:00:00,
2013-12-12 15:05:00,56.7,24.8,30.17,SSE,148,0.0,2.0,29,0.00,,,0.00,WeatherCatV1.23B14,2013-12-12 23:05:00,
2013-12-12 15:10:00,56.6,25.5,30.17,SSE,148,0.0,1.0,30,0.00,,,0.00,WeatherCatV1.23B14,2013-12-12 23:10:00,
2013-12-12 15:15:00,56.4,26.1,30.17,SSE,148,1.0,1.0,31,0.00,,,0.00,WeatherCatV1.23B14,2013-12-12 23:15:00,
2013-12-12 15:20:00,56.3,27.6,30.17,SE,134,0.0,0.0,33,0.00,,,0.00,WeatherCatV1.23B14,2013-12-12 23:20:00,
2013-12-12 15:25:00,56.1,28.1,30.17,SSW,207,0.0,0.0,34,0.00,,,0.00,WeatherCatV1.23B14,2013-12-12 23:25:00,
2013-12-12 15:30:00,55.8,27.1,30.17,West,264,1.0,3.0,33,0.00,,,0.00,WeatherCatV1.23B14,2013-12-12 23:30:00,
2013-12-12 15:35:00,55.5,28.3,30.17,SE,132,0.0,0.0,35,0.00,,,0.00,WeatherCatV1.23B14,2013-12-12 23:35:00,
2013-12-12 15:40:00,55.2,29.4,30.17,West,263,0.0,1.0,37,0.00,,,0.00,WeatherCatV1.23B14,2013-12-12 23:40:00,
2013-12-12 15:45:00,55.1,27.2,30.17,West,264,0.0,3.0,34,0.00,,,0.00,WeatherCatV1.23B14,2013-12-12 23:45:00,
2013-12-12 15:50:00,54.7,27.6,30.18,West,264,0.0,1.0,35,0.00,,,0.00,WeatherCatV1.23B14,2013-12-12 23:50:00,
2013-12-12 15:55:00,54.6,26.8,30.18,West,263,0.0,0.0,34,0.00,,,0.00,WeatherCatV1.23B14,2013-12-12 23:55:00,
2013-12-12 16:00:00,54.5,26.7,30.18,West,259,0.0,1.0,34,0.00,,,0.00,WeatherCatV1.23B14,2013-12-13 00:00:00,
2013-12-12 16:05:00,54.3,27.2,30.18,WSW,257,0.0,1.0,35,0.00,,,0.00,WeatherCatV1.23B14,2013-12-13 00:05:00,
2013-12-12 16:10:00,53.9,28.2,30.18,WSW,257,0.0,0.0,37,0.00,,,0.00,WeatherCatV1.23B14,2013-12-13 00:10:00,
2013-12-12 16:15:00,53.4,29.1,30.17,WSW,257,0.0,0.0,39,0.00,,,0.00,WeatherCatV1.23B14,2013-12-13 00:15:00,
2013-12-12 16:20:00,52.4,30.6,30.17,WSW,257,0.0,1.0,43,0.00,,,0.00,WeatherCatV1.23B14,2013-12-13 00:20:00,
2013-12-12 16:25:00,51.7,29.4,30.18,WSW,257,0.0,0.0,42,0.00,,,0.00,WeatherCatV1.23B14,2013-12-13 00:25:00,
2013-12-12 16:30:00,51.3,29.0,30.18,WSW,257,0.0,0.0,42,0.00,,,0.00,WeatherCatV1.23B14,2013-12-13 00:30:00,
2013-12-12 16:35:00,51.0,28.7,30.18,WSW,257,0.0,0.0,42,0.00,,,0.00,WeatherCatV1.23B14,2013-12-13 00:35:00,
2013-12-12 16:40:00,50.8,28.5,30.18,WSW,257,0.0,0.0,42,0.00,,,0.00,WeatherCatV1.23B14,2013-12-13 00:40:00,
2013-12-12 16:45:00,50.5,28.3,30.18,WSW,257,0.0,0.0,42,0.00,,,0.00,WeatherCatV1.23B14,2013-12-13 00:45:00,
2013-12-12 16:50:00,50.0,29.0,30.18,WSW,257,0.0,0.0,44,0.00,,,0.00,WeatherCatV1.23B14,2013-12-13 00:50:00,
2013-12-12 16:55:00,49.3,28.9,30.18,WSW,257,0.0,0.0,45,0.00,,,0.00,WeatherCatV1.23B14,2013-12-13 00:55:00,
2013-12-12 17:00:00,48.4,29.1,30.18,West,273,0.0,1.0,47,0.00,,,0.00,WeatherCatV1.23B14,2013-12-13 01:00:00,
2013-12-12 17:05:00,47.9,28.1,30.19,West,278,0.0,0.0,46,0.00,,,0.00,WeatherCatV1.23B14,2013-12-13 01:05:00,
2013-12-12 17:10:00,47.6,28.9,30.18,WNW,282,0.0,0.0,48,0.00,,,0.00,WeatherCatV1.23B14,2013-12-13 01:10:00,
2013-12-12 17:15:00,47.3,28.6,30.18,WNW,283,0.0,0.0,48,0.00,,,0.00,WeatherCatV1.23B14,2013-12-13 01:15:00,
2013-12-12 17:20:00,47.3,29.1,30.18,NW,315,0.0,0.0,49,0.00,,,0.00,WeatherCatV1.23B14,2013-12-13 01:20:00,
2013-12-12 17:25:00,46.9,29.7,30.18,NW,315,0.0,0.0,51,0.00,,,0.00,WeatherCatV1.23B14,2013-12-13 01:25:00,
2013-12-12 17:30:00,46.0,29.8,30.18,NW,315,0.0,0.0,53,0.00,,,0.00,WeatherCatV1.23B14,2013-12-13 01:30:00,
2013-12-12 17:35:00,45.2,30.0,30.19,NW,315,0.0,0.0,55,0.00,,,0.00,WeatherCatV1.23B14,2013-12-13 01:35:00,
2013-12-12 17:40:00,44.5,29.8,30.18,NW,315,0.0,0.0,56,0.00,,,0.00,WeatherCatV1.23B14,2013-12-13 01:40:00,
2013-12-12 17:45:00,44.1,29.0,30.19,NW,315,0.0,0.0,55,0.00,,,0.00,WeatherCatV1.23B14,2013-12-13 01:45:00,
2013-12-12 17:50:00,43.9,29.7,30.19,NW,315,0.0,0.0,57,0.00,,,0.00,WeatherCatV1.23B14,2013-12-13 01:50:00,
2013-12-12 17:55:00,43.6,31.0,30.19,NW,315,0.0,0.0,61,0.00,,,0.00,WeatherCatV1.23B14,2013-12-13 01:55:00,
2013-12-12 18:00:00,43.1,30.2,30.19,NNW,329,0.0,0.0,60,0.00,,,0.00,WeatherCatV1.23B14,2013-12-13 02:00:00,
2013-12-12 18:05:00,43.3,29.5,30.19,ENE,67,0.0,0.0,58,0.00,,,0.00,WeatherCatV1.23B14,2013-12-13 02:05:00,
2013-12-12 18:10:00,43.3,30.8,30.20,ENE,65,0.0,0.0,61,0.00,,,0.00,WeatherCatV1.23B14,2013-12-13 02:10:00,
2013-12-12 18:15:00,42.5,30.8,30.20,ENE,65,0.0,0.0,63,0.00,,,0.00,WeatherCatV1.23B14,2013-12-13 02:15:00,
2013-12-12 18:20:00,41.9,30.6,30.20,ENE,65,0.0,0.0,64,0.00,,,0.00,WeatherCatV1.23B14,2013-12-13 02:20:00,
2013-12-12 18:25:00,41.5,30.6,30.20,ENE,65,0.0,0.0,65,0.00,,,0.00,WeatherCatV1.23B14,2013-12-13 02:25:00,
2013-12-12 18:30:00,41.5,29.5,30.20,ENE,65,0.0,0.0,62,0.00,,,0.00,WeatherCatV1.23B14,2013-12-13 02:30:00,
2013-12-12 18:35:00,42.0,29.5,30.20,ENE,65,0.0,0.0,61,0.00,,,0.00,WeatherCatV1.23B14,2013-12-13 02:35:00,
2013-12-12 18:40:00,42.3,29.4,30.20,ENE,65,0.0,0.0,60,0.00,,,0.00,WeatherCatV1.23B14,2013-12-13 02:40:00,
2013-12-12 18:45:00,42.5,29.2,30.20,ENE,65,0.0,0.0,59,0.00,,,0.00,WeatherCatV1.23B14,2013-12-13 02:45:00,
2013-12-12 18:50:00,42.4,29.9,30.20,ENE,65,0.0,0.0,61,0.00,,,0.00,WeatherCatV1.23B14,2013-12-13 02:50:00,
2013-12-12 18:55:00,41.7,30.8,30.21,ENE,65,0.0,0.0,65,0.00,,,0.00,WeatherCatV1.23B14,2013-12-13 02:55:00,
2013-12-12 19:00:00,41.0,30.1,30.20,ENE,65,0.0,0.0,65,0.00,,,0.00,WeatherCatV1.23B14,2013-12-13 03:00:00,
2013-12-12 19:05:00,40.5,30.0,30.21,ENE,65,0.0,0.0,66,0.00,,,0.00,WeatherCatV1.23B14,2013-12-13 03:05:00,
2013-12-12 19:10:00,39.9,29.9,30.21,ENE,65,0.0,0.0,67,0.00,,,0.00,WeatherCatV1.23B14,2013-12-13 03:10:00,
2013-12-12 19:15:00,40.0,30.3,30.21,ENE,65,0.0,0.0,68,0.00,,,0.00,WeatherCatV1.23B14,2013-12-13 03:15:00,
2013-12-12 19:20:00,39.9,29.5,30.21,ENE,65,0.0,0.0,66,0.00,,,0.00,WeatherCatV1.23B14,2013-12-13 03:20:00,
2013-12-12 19:25:00,39.1,29.1,30.21,ENE,65,0.0,0.0,67,0.00,,,0.00,WeatherCatV1.23B14,2013-12-13 03:25:00,
2013-12-12 19:30:00,39.1,28.7,30.21,ENE,65,0.0,0.0,66,0.00,,,0.00,WeatherCatV1.23B14,2013-12-13 03:30:00,
2013-12-12 19:35:00,39.9,28.7,30.20,ENE,65,0.0,0.0,64,0.00,,,0.00,WeatherCatV1.23B14,2013-12-13 03:35:00,
2013-12-12 19:40:00,40.2,28.6,30.21,ENE,65,0.0,0.0,63,0.00,,,0.00,WeatherCatV1.23B14,2013-12-13 03:40:00,
2013-12-12 19:45:00,40.3,28.7,30.20,ENE,65,0.0,0.0,63,0.00,,,0.00,WeatherCatV1.23B14,2013-12-13 03:45:00,
2013-12-12 19:50:00,40.7,28.3,30.20,ENE,78,0.0,0.0,61,0.00,,,0.00,WeatherCatV1.23B14,2013-12-13 03:50:00,
2013-12-12 19:55:00,40.9,28.5,30.21,ENE,77,0.0,0.0,61,0.00,,,0.00,WeatherCatV1.23B14,2013-12-13 03:55:00,
2013-12-12 20:00:00,40.9,29.3,30.21,ENE,77,0.0,0.0,63,0.00,,,0.00,WeatherCatV1.23B14,2013-12-13 04:00:00,
2013-12-12 20:05:00,40.6,29.8,30.21,ENE,77,0.0,0.0,65,0.00,,,0.00,WeatherCatV1.23B14,2013-12-13 04:05:00,
2013-12-12 20:10:00,39.9,30.2,30.21,ENE,77,0.0,0.0,68,0.00,,,0.00,WeatherCatV1.23B14,2013-12-13 04:10:00,
2013-12-12 20:15:00,39.4,29.4,30.21,ENE,77,0.0,0.0,67,0.00,,,0.00,WeatherCatV1.23B14,2013-12-13 04:15:00,
2013-12-12 20:20:00,39.5,29.5,30.21,ENE,76,0.0,0.0,67,0.00,,,0.00,WeatherCatV1.23B14,2013-12-13 04:20:00,
2013-12-12 20:25:00,39.7,29.3,30.21,ENE,77,0.0,0.0,66,0.00,,,0.00,WeatherCatV1.23B14,2013-12-13 04:25:00,
2013-12-12 20:30:00,39.5,30.2,30.21,ENE,77,0.0,0.0,69,0.00,,,0.00,WeatherCatV1.23B14,2013-12-13 04:30:00,
2013-12-12 20:35:00,39.3,29.6,30.21,ENE,77,0.0,0.0,68,0.00,,,0.00,WeatherCatV1.23B14,2013-12-13 04:35:00,
2013-12-12 20:40:00,38.8,28.4,30.21,ENE,77,0.0,0.0,66,0.00,,,0.00,WeatherCatV1.23B14,2013-12-13 04:40:00,
2013-12-12 20:45:00,38.3,28.3,30.21,ENE,76,0.0,0.0,67,0.00,,,0.00,WeatherCatV1.23B14,2013-12-13 04:45:00,
2013-12-12 20:50:00,38.5,28.5,30.22,ENE,77,0.0,0.0,67,0.00,,,0.00,WeatherCatV1.23B14,2013-12-13 04:50:00,
2013-12-12 20:55:00,38.7,28.7,30.22,ENE,76,0.0,0.0,67,0.00,,,0.00,WeatherCatV1.23B14,2013-12-13 04:55:00,
2013-12-12 21:00:00,39.7,28.9,30.22,ENE,73,0.0,0.0,65,0.00,,,0.00,WeatherCatV1.23B14,2013-12-13 05:00:00,
2013-12-12 21:01:00,39.9,28.7,30.22,ENE,74,0.0,0.0,64,0.00,,,0.00,WeatherCatV1.23B14,2013-12-13 05:01:00,
2013-12-12 21:06:00,40.9,28.9,30.22,ENE,78,0.0,1.0,62,0.00,,,0.00,WeatherCatV1.23B14,2013-12-13 05:06:00,
2013-12-12 21:11:00,40.3,27.1,30.21,ENE,78,0.0,0.0,59,0.00,,,0.00,WeatherCatV1.23B14,2013-12-13 05:11:00,
2013-12-12 21:16:00,38.7,26.0,30.22,NE,47,0.0,0.0,60,0.00,,,0.00,WeatherCatV1.23B14,2013-12-13 05:16:00,
2013-12-12 21:21:00,38.2,26.3,30.22,NE,47,0.0,0.0,62,0.00,,,0.00,WeatherCatV1.23B14,2013-12-13 05:21:00,
2013-12-12 21:26:00,38.5,28.5,30.22,NE,47,0.0,0.0,67,0.00,,,0.00,WeatherCatV1.23B14,2013-12-13 05:26:00,
2013-12-12 21:31:00,39.0,28.2,30.22,NE,47,0.0,0.0,65,0.00,,,0.00,WeatherCatV1.23B14,2013-12-13 05:31:00,
2013-12-12 21:36:00,39.5,28.0,30.22,NE,47,0.0,0.0,63,0.00,,,0.00,WeatherCatV1.23B14,2013-12-13 05:36:00,
2013-12-12 21:41:00,39.9,28.0,30.22,NE,47,0.0,0.0,62,0.00,,,0.00,WeatherCatV1.23B14,2013-12-13 05:41:00,
2013-12-12 21:46:00,40.2,29.0,30.22,NE,47,0.0,0.0,64,0.00,,,0.00,WeatherCatV1.23B14,2013-12-13 05:46:00,
2013-12-12 21:51:00,39.7,28.9,30.22,NE,47,0.0,0.0,65,0.00,,,0.00,WeatherCatV1.23B14,2013-12-13 05:51:00,
2013-12-12 21:56:00,39.5,29.1,30.22,NE,47,0.0,0.0,66,0.00,,,0.00,WeatherCatV1.23B14,2013-12-13 05:56:00,
2013-12-12 22:01:00,39.2,29.2,30.23,NE,47,0.0,0.0,67,0.00,,,0.00,WeatherCatV1.23B14,2013-12-13 06:01:00,
2013-12-12 22:06:00,38.9,28.1,30.23,NE,47,0.0,0.0,65,0.00,,,0.00,WeatherCatV1.23B14,2013-12-13 06:06:00,
2013-12-12 22:11:00,39.4,27.5,30.23,NE,47,0.0,0.0,62,0.00,,,0.00,WeatherCatV1.23B14,2013-12-13 06:11:00,
2013-12-12 22:16:00,39.8,27.9,30.23,NE,47,0.0,0.0,62,0.00,,,0.00,WeatherCatV1.23B14,2013-12-13 06:16:00,
2013-12-12 22:21:00,39.9,28.3,30.23,NE,47,0.0,0.0,63,0.00,,,0.00,WeatherCatV1.23B14,2013-12-13 06:21:00,
2013-12-12 22:26:00,39.6,29.2,30.23,NE,47,0.0,0.0,66,0.00,,,0.00,WeatherCatV1.23B14,2013-12-13 06:26:00,
2013-12-12 22:31:00,39.5,28.0,30.23,NE,47,0.0,0.0,63,0.00,,,0.00,WeatherCatV1.23B14,2013-12-13 06:31:00,
2013-12-12 22:36:00,39.4,29.0,30.24,NE,47,0.0,0.0,66,0.00,,,0.00,WeatherCatV1.23B14,2013-12-13 06:36:00,
2013-12-12 22:41:00,38.5,27.8,30.24,ENE,63,0.0,0.0,65,0.00,,,0.00,WeatherCatV1.23B14,2013-12-13 06:41:00,
2013-12-12 22:46:00,38.2,28.2,30.24,ENE,63,0.0,0.0,67,0.00,,,0.00,WeatherCatV1.23B14,2013-12-13 06:46:00,
2013-12-12 22:51:00,39.1,28.0,30.24,ENE,63,0.0,0.0,64,0.00,,,0.00,WeatherCatV1.23B14,2013-12-13 06:51:00,
2013-12-12 22:56:00,39.7,28.5,30.24,ENE,63,0.0,0.0,64,0.00,,,0.00,WeatherCatV1.23B14,2013-12-13 06:56:00,
2013-12-12 23:01:00,39.7,28.9,30.24,ENE,63,0.0,0.0,65,0.00,,,0.00,WeatherCatV1.23B14,2013-12-13 07:01:00,
2013-12-12 23:06:00,39.7,28.1,30.24,ENE,63,0.0,0.0,63,0.00,,,0.00,WeatherCatV1.23B14,2013-12-13 07:06:00,
2013-12-12 23:11:00,39.6,27.7,30.24,ENE,63,0.0,0.0,62,0.00,,,0.00,WeatherCatV1.23B14,2013-12-13 07:11:00,
2013-12-12 23:16:00,39.6,27.7,30.23,ENE,63,0.0,0.0,62,0.00,,,0.00,WeatherCatV1.23B14,2013-12-13 07:16:00,
2013-12-12 23:21:00,39.5,27.2,30.23,ENE,63,0.0,0.0,61,0.00,,,0.00,WeatherCatV1.23B14,2013-12-13 07:21:00,
2013-12-12 23:26:00,39.7,27.0,30.23,ENE,72,0.0,0.0,60,0.00,,,0.00,WeatherCatV1.23B14,2013-12-13 07:26:00,
2013-12-12 23:31:00,39.7,28.5,30.23,North,4,0.0,0.0,64,0.00,,,0.00,WeatherCatV1.23B14,2013-12-13 07:31:00,
2013-12-12 23:36:00,38.5,28.1,30.23,North,5,0.0,0.0,66,0.00,,,0.00,WeatherCatV1.23B14,2013-12-13 07:36:00,
2013-12-12 23:41:00,37.7,27.8,30.24,North,5,0.0,0.0,67,0.00,,,0.00,WeatherCatV1.23B14,2013-12-13 07:41:00,
2013-12-12 23:46:00,37.3,28.4,30.24,North,5,0.0,0.0,70,0.00,,,0.00,WeatherCatV1.23B14,2013-12-13 07:46:00,
2013-12-12 23:51:00,37.1,28.2,30.24,North,5,0.0,0.0,70,0.00,,,0.00,WeatherCatV1.23B14,2013-12-13 07:51:00,
2013-12-12 23:56:00,37.1,27.5,30.24,North,5,0.0,0.0,68,0.00,,,0.00,WeatherCatV1.23B14,2013-12-13 07:56:00,